createdAt,value
2023-05-20T00:01:39.423Z,41.50
2023-05-20T00:04:32.478Z,41.50
2023-05-20T00:07:26.146Z,41.60
2023-05-20T00:10:20.842Z,41.60
2023-05-20T00:13:14.602Z,41.60
2023-05-20T00:16:07.630Z,41.70
2023-05-20T00:19:00.779Z,41.70
2023-05-20T00:21:54.135Z,41.70
2023-05-20T00:24:47.764Z,41.70
2023-05-20T00:27:43.085Z,41.70
2023-05-20T00:30:36.736Z,41.70
2023-05-20T00:33:30.518Z,41.80
2023-05-20T00:36:23.517Z,41.80
2023-05-20T00:39:16.433Z,41.80
2023-05-20T00:42:09.267Z,42.50
2023-05-20T00:45:03.940Z,41.90
2023-05-20T00:47:59.742Z,41.90
2023-05-20T00:50:53.623Z,41.90
2023-05-20T00:53:47.127Z,41.90
2023-05-20T00:56:40.282Z,42.00
2023-05-20T00:59:33.982Z,42.00
2023-05-20T01:02:28.907Z,42.00
2023-05-20T01:05:22.258Z,42.00
2023-05-20T01:08:15.577Z,42.00
2023-05-20T01:11:12.151Z,42.00
2023-05-20T01:14:09.536Z,42.10
2023-05-20T01:17:09.417Z,42.10
2023-05-20T01:20:07.345Z,42.10
2023-05-20T01:23:02.690Z,42.10
2023-05-20T01:25:56.570Z,42.20
2023-05-20T01:28:51.188Z,42.20
2023-05-20T01:31:44.833Z,42.20
2023-05-20T01:34:39.907Z,42.20
2023-05-20T01:37:35.524Z,42.30
2023-05-20T01:40:30.340Z,42.30
2023-05-20T01:43:23.597Z,42.30
2023-05-20T01:46:17.285Z,42.30
2023-05-20T01:49:10.517Z,42.30
2023-05-20T01:52:03.542Z,42.30
2023-05-20T01:54:56.516Z,42.40
2023-05-20T01:57:50.730Z,42.40
2023-05-20T02:00:45.092Z,42.50
2023-05-20T02:03:38.625Z,42.50
2023-05-20T02:06:31.523Z,42.50
2023-05-20T02:09:24.489Z,42.60
2023-05-20T02:12:17.532Z,42.70
2023-05-20T02:15:12.320Z,42.70
2023-05-20T02:18:05.592Z,42.70
2023-05-20T02:21:02.651Z,42.80
2023-05-20T02:23:55.356Z,42.80
2023-05-20T02:26:49.533Z,42.80
2023-05-20T02:29:43.865Z,42.80
2023-05-20T02:32:39.122Z,42.80
2023-05-20T02:35:32.319Z,42.80
2023-05-20T02:38:25.694Z,42.80
2023-05-20T02:41:18.416Z,42.80
2023-05-20T02:44:11.644Z,42.80
2023-05-20T02:47:04.664Z,42.80
2023-05-20T02:49:59.170Z,42.80
2023-05-20T02:52:52.440Z,42.80
2023-05-20T02:55:48.761Z,42.80
2023-05-20T02:58:41.591Z,42.80
2023-05-20T03:01:35.567Z,42.80
2023-05-20T03:04:28.840Z,42.80
2023-05-20T03:07:23.834Z,42.80
2023-05-20T03:10:17.453Z,42.80
2023-05-20T03:13:11.568Z,42.90
2023-05-20T03:16:04.470Z,42.90
2023-05-20T03:18:57.660Z,42.90
2023-05-20T03:21:50.679Z,42.90
2023-05-20T03:24:46.345Z,42.90
2023-05-20T03:27:39.760Z,43.00
2023-05-20T03:30:32.597Z,42.90
2023-05-20T03:33:27.085Z,42.90
2023-05-20T03:36:20.435Z,43.00
2023-05-20T03:39:13.773Z,43.60
2023-05-20T03:42:08.384Z,43.00
2023-05-20T03:45:01.406Z,43.00
2023-05-20T03:47:54.791Z,43.00
2023-05-20T03:50:47.742Z,43.00
2023-05-20T03:53:41.181Z,43.00
2023-05-20T03:56:34.595Z,43.10
2023-05-20T03:59:29.330Z,43.10
2023-05-20T04:02:22.832Z,43.10
2023-05-20T04:05:16.684Z,43.10
2023-05-20T04:08:09.888Z,43.10
2023-05-20T04:11:03.378Z,43.20
2023-05-20T04:13:56.582Z,43.10
2023-05-20T04:16:51.735Z,43.20
2023-05-20T04:19:45.089Z,43.80
2023-05-20T04:22:39.519Z,43.20
2023-05-20T04:25:33.213Z,43.20
2023-05-20T04:28:28.107Z,43.20
2023-05-20T04:31:26.588Z,43.20
2023-05-20T04:34:26.758Z,43.30
2023-05-20T04:37:20.928Z,43.30
2023-05-20T04:40:15.003Z,43.30
2023-05-20T04:43:08.207Z,43.30
2023-05-20T04:46:06.012Z,43.30
2023-05-20T04:48:59.579Z,43.30
2023-05-20T04:51:55.589Z,43.30
2023-05-20T04:54:48.355Z,43.30
2023-05-20T04:57:42.782Z,43.30
2023-05-20T05:00:36.740Z,43.40
2023-05-20T05:03:29.992Z,43.50
2023-05-20T05:06:23.989Z,43.50
2023-05-20T05:09:18.741Z,43.50
2023-05-20T05:12:11.808Z,43.60
2023-05-20T05:15:04.814Z,43.60
2023-05-20T05:17:57.787Z,43.70
2023-05-20T05:20:50.685Z,43.70
2023-05-20T05:23:43.947Z,43.70
2023-05-20T05:26:39.064Z,43.80
2023-05-20T05:29:32.719Z,43.80
2023-05-20T05:32:25.936Z,43.90
2023-05-20T05:35:19.868Z,44.00
2023-05-20T05:38:12.762Z,44.00
2023-05-20T05:41:05.906Z,43.90
2023-05-20T05:44:00.524Z,43.90
2023-05-20T05:46:53.832Z,43.90
2023-05-20T05:49:46.927Z,44.20
2023-05-20T05:52:41.289Z,44.00
2023-05-20T05:55:35.060Z,44.00
2023-05-20T05:58:28.767Z,44.10
2023-05-20T06:01:23.333Z,44.00
2023-05-20T06:04:16.713Z,44.10
2023-05-20T06:07:09.532Z,44.20
2023-05-20T06:10:02.671Z,44.10
2023-05-20T06:12:55.676Z,44.10
2023-05-20T06:15:51.076Z,44.10
2023-05-20T06:18:47.417Z,44.20
2023-05-20T06:21:40.679Z,44.80
2023-05-20T06:24:36.209Z,44.30
2023-05-20T06:27:29.702Z,44.50
2023-05-20T06:30:22.838Z,44.20
2023-05-20T06:33:15.669Z,44.20
2023-05-20T06:36:09.979Z,44.30
2023-05-20T06:39:04.150Z,44.40
2023-05-20T06:41:57.616Z,44.40
2023-05-20T06:44:50.761Z,44.30
2023-05-20T06:47:44.093Z,44.20
2023-05-20T06:50:37.547Z,44.30
2023-05-20T06:53:31.870Z,44.40
2023-05-20T06:56:24.669Z,44.50
2023-05-20T06:59:17.627Z,44.40
2023-05-20T07:02:10.898Z,44.40
2023-05-20T07:05:03.588Z,44.60
2023-05-20T07:07:56.774Z,44.80
2023-05-20T07:10:51.111Z,44.60
2023-05-20T07:13:45.025Z,44.60
2023-05-20T07:16:39.285Z,44.60
2023-05-20T07:19:33.754Z,44.60
2023-05-20T07:22:26.629Z,44.60
2023-05-20T07:25:19.828Z,46.00
2023-05-20T07:28:16.762Z,44.90
2023-05-20T07:31:09.700Z,44.50
2023-05-20T07:34:03.177Z,44.40
2023-05-20T07:36:57.110Z,45.20
2023-05-20T07:39:50.940Z,45.30
2023-05-20T07:42:43.456Z,45.90
2023-05-20T07:45:38.552Z,45.50
2023-05-20T07:48:31.511Z,45.20
2023-05-20T07:51:25.387Z,44.90
2023-05-20T07:54:18.964Z,45.20
2023-05-20T07:57:12.030Z,45.40
2023-05-20T08:00:06.437Z,45.50
2023-05-20T08:03:01.399Z,45.50
2023-05-20T08:05:54.824Z,45.50
2023-05-20T08:08:47.973Z,45.70
2023-05-20T08:11:40.789Z,46.40
2023-05-20T08:14:33.984Z,45.70
2023-05-20T08:17:27.086Z,45.50
2023-05-20T08:20:22.709Z,45.40
2023-05-20T08:23:15.629Z,45.40
2023-05-20T08:26:09.064Z,45.20
2023-05-20T08:29:02.437Z,45.70
2023-05-20T08:31:55.784Z,45.50
2023-05-20T08:34:49.718Z,45.40
2023-05-20T08:37:43.974Z,45.40
2023-05-20T08:40:37.221Z,45.40
2023-05-20T08:43:32.487Z,45.30
2023-05-20T08:46:26.336Z,45.50
2023-05-20T08:49:20.992Z,45.30
2023-05-20T08:52:14.727Z,45.40
2023-05-20T08:55:12.411Z,45.50
2023-05-20T08:58:05.697Z,45.60
2023-05-20T09:00:59.872Z,45.70
2023-05-20T09:03:56.014Z,45.40
2023-05-20T09:06:49.199Z,45.40
2023-05-20T09:09:42.623Z,45.50
2023-05-20T09:12:37.911Z,45.40
2023-05-20T09:15:30.745Z,46.30
2023-05-20T09:18:24.711Z,46.50
2023-05-20T09:21:18.286Z,46.30
2023-05-20T09:24:11.747Z,46.70
2023-05-20T09:27:05.910Z,46.80
2023-05-20T09:30:00.456Z,46.40
2023-05-20T09:32:57.591Z,46.10
2023-05-20T09:35:50.959Z,46.40
2023-05-20T09:38:44.952Z,46.60
2023-05-20T09:41:40.676Z,46.80
2023-05-20T09:44:34.420Z,46.20
2023-05-20T09:47:29.267Z,46.00
2023-05-20T09:50:23.670Z,46.30
2023-05-20T09:53:18.589Z,46.30
2023-05-20T09:56:12.892Z,46.10
2023-05-20T09:59:06.792Z,46.00
2023-05-20T10:01:59.952Z,46.00
2023-05-20T10:04:56.612Z,45.90
2023-05-20T10:08:21.138Z,45.80
2023-05-20T10:11:21.761Z,45.80
2023-05-20T10:14:29.475Z,45.70
2023-05-20T10:17:29.852Z,46.00
2023-05-20T10:20:24.433Z,46.90
2023-05-20T10:23:24.713Z,46.90
2023-05-20T10:26:17.577Z,47.00
2023-05-20T10:29:20.637Z,46.90
2023-05-20T10:32:24.823Z,46.70
2023-05-20T10:35:26.345Z,46.50
2023-05-20T10:38:20.686Z,46.30
2023-05-20T10:41:14.088Z,46.90
2023-05-20T10:44:07.879Z,46.60
2023-05-20T10:50:02.060Z,47.20
2023-05-20T10:52:57.059Z,46.70
2023-05-20T10:55:54.612Z,46.70
2023-05-20T10:58:49.046Z,46.60
2023-05-20T11:01:43.599Z,46.50
2023-05-20T11:04:37.667Z,46.70
2023-05-20T11:07:31.972Z,46.70
2023-05-20T11:10:26.583Z,46.70
2023-05-20T11:13:19.901Z,46.20
2023-05-20T11:16:12.816Z,46.40
2023-05-20T11:19:05.961Z,46.40
2023-05-20T11:22:01.692Z,46.50
2023-05-20T11:24:54.672Z,46.40
2023-05-20T11:27:49.174Z,46.70
2023-05-20T11:30:46.135Z,46.70
2023-05-20T11:33:43.160Z,46.40
2023-05-20T11:36:35.570Z,46.50
2023-05-20T11:39:31.480Z,47.00
2023-05-20T11:42:24.856Z,46.40
2023-05-20T11:45:19.340Z,46.20
2023-05-20T11:48:15.650Z,46.50
2023-05-20T11:51:09.975Z,46.30
2023-05-20T11:54:03.746Z,46.30
2023-05-20T11:56:57.168Z,46.30
2023-05-20T11:59:50.784Z,46.10
2023-05-20T12:02:45.566Z,46.20
2023-05-20T12:05:39.042Z,46.10
2023-05-20T12:08:32.675Z,46.10
2023-05-20T12:11:26.019Z,46.10
2023-05-20T12:14:19.006Z,46.20
2023-05-20T12:17:11.800Z,46.30
2023-05-20T12:20:07.453Z,46.10
2023-05-20T12:23:01.327Z,46.20
2023-05-20T12:25:55.226Z,46.40
2023-05-20T12:28:48.013Z,46.30
2023-05-20T12:31:40.786Z,46.20
2023-05-20T12:34:33.793Z,46.20
2023-05-20T12:37:30.353Z,46.90
2023-05-20T12:40:23.610Z,46.20
2023-05-20T12:43:16.663Z,46.30
2023-05-20T12:46:09.971Z,46.20
2023-05-20T12:49:03.039Z,46.30
2023-05-20T12:51:55.959Z,46.30
2023-05-20T12:54:50.718Z,46.30
2023-05-20T12:57:45.508Z,46.30
2023-05-20T13:00:39.074Z,46.40
2023-05-20T13:03:32.051Z,46.30
2023-05-20T13:06:26.280Z,46.40
2023-05-20T13:09:19.985Z,46.30
2023-05-20T13:12:15.184Z,46.30
2023-05-20T13:15:09.282Z,46.20
2023-05-20T13:18:03.642Z,46.30
2023-05-20T13:20:57.135Z,46.10
2023-05-20T13:23:50.258Z,46.00
2023-05-20T13:26:43.769Z,46.10
2023-05-20T13:29:38.253Z,46.00
2023-05-20T13:32:31.464Z,46.10
2023-05-20T13:35:25.582Z,46.10
2023-05-20T13:38:19.199Z,46.10
2023-05-20T13:41:11.769Z,46.40
2023-05-20T13:44:04.881Z,46.40
2023-05-20T13:46:59.950Z,46.10
2023-05-20T13:49:53.051Z,46.00
2023-05-20T13:52:46.300Z,46.00
2023-05-20T13:55:38.973Z,46.20
2023-05-20T13:58:31.710Z,46.10
2023-05-20T14:01:25.093Z,46.10
2023-05-20T14:04:19.300Z,46.10
2023-05-20T14:07:11.982Z,46.20
2023-05-20T14:10:06.098Z,46.20
2023-05-20T14:13:01.913Z,46.20
2023-05-20T14:15:55.695Z,46.20
2023-05-20T14:18:49.194Z,46.10
2023-05-20T14:21:43.423Z,46.20
2023-05-20T14:24:37.105Z,46.20
2023-05-20T14:27:30.908Z,46.20
2023-05-20T14:30:24.952Z,46.30
2023-05-20T14:33:18.330Z,46.30
2023-05-20T14:36:12.752Z,46.40
2023-05-20T14:39:07.084Z,46.30
2023-05-20T14:42:00.071Z,46.40
2023-05-20T14:44:53.059Z,46.40
2023-05-20T14:47:46.031Z,46.40
2023-05-20T14:50:39.298Z,46.40
2023-05-20T14:53:32.314Z,46.50
2023-05-20T14:56:26.886Z,46.50
2023-05-20T14:59:20.371Z,46.50
2023-05-20T15:02:15.661Z,46.60
2023-05-20T15:05:11.862Z,46.60
2023-05-20T15:08:06.064Z,46.50
2023-05-20T15:10:58.822Z,46.60
2023-05-20T15:13:53.392Z,46.60
2023-05-20T15:16:47.042Z,46.60
2023-05-20T15:19:41.795Z,46.60
2023-05-20T15:22:34.839Z,46.60
2023-05-20T15:25:27.995Z,46.70
2023-05-20T15:28:21.124Z,46.60
2023-05-20T15:31:15.823Z,46.60
2023-05-20T15:34:09.213Z,46.60
2023-05-20T15:37:02.595Z,46.60
2023-05-20T15:39:56.064Z,47.30
2023-05-20T15:42:49.185Z,46.60
2023-05-20T15:45:42.010Z,46.70
2023-05-20T15:48:37.900Z,46.70
2023-05-20T15:51:31.326Z,46.70
2023-05-20T15:54:24.413Z,46.70
2023-05-20T15:57:18.185Z,46.70
2023-05-20T16:00:12.620Z,46.70
2023-05-20T16:03:06.486Z,46.80
2023-05-20T16:06:01.607Z,46.80
2023-05-20T16:08:55.061Z,46.80
2023-05-20T16:11:48.682Z,46.80
2023-05-20T16:14:42.099Z,46.80
2023-05-20T16:17:35.472Z,46.90
2023-05-20T16:20:29.044Z,46.80
2023-05-20T16:23:24.377Z,46.80
2023-05-20T16:26:17.261Z,46.70
2023-05-20T16:29:10.302Z,46.70
2023-05-20T16:32:03.373Z,46.70
2023-05-20T16:34:56.193Z,46.90
2023-05-20T16:37:49.354Z,46.80
2023-05-20T16:40:43.481Z,46.90
2023-05-20T16:43:37.203Z,46.70
2023-05-20T16:46:30.470Z,46.80
2023-05-20T16:49:24.135Z,46.80
2023-05-20T16:52:17.485Z,46.80
2023-05-20T16:55:12.570Z,46.90
2023-05-20T16:58:07.550Z,46.90
2023-05-20T17:01:00.947Z,46.80
2023-05-20T17:03:54.027Z,46.90
2023-05-20T17:06:49.775Z,46.90
2023-05-20T17:09:43.260Z,46.90
2023-05-20T17:12:36.320Z,47.50
2023-05-20T17:15:30.752Z,47.20
2023-05-20T17:18:24.432Z,47.10
2023-05-20T17:21:20.377Z,47.10
2023-05-20T17:24:13.211Z,47.00
2023-05-20T17:27:07.106Z,47.00
2023-05-20T17:30:00.766Z,47.00
2023-05-20T17:32:57.370Z,47.00
2023-05-20T17:35:51.678Z,47.00
2023-05-20T17:38:45.221Z,47.70
2023-05-20T17:41:38.244Z,47.10
2023-05-20T17:44:31.470Z,47.10
2023-05-20T17:47:24.333Z,47.00
2023-05-20T17:50:18.853Z,47.10
2023-05-20T17:53:12.381Z,47.00
2023-05-20T17:56:06.490Z,47.00
2023-05-20T17:58:59.642Z,47.00
2023-05-20T18:01:53.770Z,47.00
2023-05-20T18:04:47.074Z,47.00
2023-05-20T18:07:41.891Z,47.00
2023-05-20T18:10:35.253Z,47.00
2023-05-20T18:13:28.542Z,47.00
2023-05-20T18:16:22.396Z,47.10
2023-05-20T18:19:15.798Z,47.10
2023-05-20T18:22:09.553Z,47.10
2023-05-20T18:25:05.238Z,47.10
2023-05-20T18:27:58.434Z,47.20
2023-05-20T18:30:51.252Z,47.10
2023-05-20T18:33:44.196Z,47.20
2023-05-20T18:36:37.604Z,47.10
2023-05-20T18:39:31.300Z,47.10
2023-05-20T18:42:25.831Z,47.20
2023-05-20T18:45:19.205Z,47.20
2023-05-20T18:48:15.914Z,47.20
2023-05-20T18:51:13.350Z,47.30
2023-05-20T18:54:06.719Z,47.30
2023-05-20T18:57:00.522Z,47.40
2023-05-20T18:59:55.209Z,47.20
2023-05-20T19:02:48.407Z,47.30
2023-05-20T19:05:41.365Z,47.20
2023-05-20T19:08:34.259Z,47.20
2023-05-20T19:11:27.436Z,47.30
2023-05-20T19:14:20.392Z,47.30
2023-05-20T19:17:15.166Z,47.30
2023-05-20T19:20:10.398Z,47.30
2023-05-20T19:23:03.939Z,47.40
2023-05-20T19:25:57.703Z,47.40
2023-05-20T19:28:51.709Z,47.40
2023-05-20T19:31:45.872Z,47.20
2023-05-20T19:34:41.583Z,47.30
2023-05-20T19:37:35.158Z,47.20
2023-05-20T19:40:28.458Z,47.30
2023-05-20T19:43:21.843Z,47.30
2023-05-20T19:46:15.376Z,47.30
2023-05-20T19:49:08.497Z,47.30
2023-05-20T19:52:02.897Z,47.30
2023-05-20T19:54:56.716Z,47.20
2023-05-20T19:57:53.352Z,47.40
2023-05-20T20:00:46.368Z,47.40
2023-05-20T20:03:40.125Z,47.40
2023-05-20T20:06:33.545Z,47.40
2023-05-20T20:09:28.555Z,47.30
2023-05-20T20:12:21.902Z,47.40
2023-05-20T20:15:15.813Z,47.40
2023-05-20T20:18:09.390Z,48.10
2023-05-20T20:21:05.976Z,47.40
2023-05-20T20:23:59.979Z,47.30
2023-05-20T20:26:56.759Z,47.40
2023-05-20T20:29:50.396Z,47.40
2023-05-20T20:32:43.793Z,47.30
2023-05-20T20:35:37.742Z,47.40
2023-05-20T20:38:31.490Z,47.40
2023-05-20T20:41:24.907Z,47.30
2023-05-20T20:44:22.452Z,47.40
2023-05-20T20:47:15.708Z,47.40
2023-05-20T20:50:11.471Z,47.40
2023-05-20T20:53:04.730Z,47.40
2023-05-20T20:55:58.347Z,47.30
2023-05-20T20:58:54.097Z,47.40
2023-05-20T21:01:49.454Z,47.30
2023-05-20T21:04:43.117Z,47.50
2023-05-20T21:07:38.898Z,47.40
2023-05-20T21:10:33.653Z,47.30
2023-05-20T21:13:28.292Z,47.40
2023-05-20T21:16:21.574Z,47.40
2023-05-20T21:19:16.213Z,47.40
2023-05-20T21:22:09.699Z,47.40
2023-05-20T21:25:03.498Z,47.40
2023-05-20T21:27:56.558Z,47.40
2023-05-20T21:30:49.536Z,47.50
2023-05-20T21:33:42.243Z,47.40
2023-05-20T21:36:37.037Z,47.40
2023-05-20T21:39:30.574Z,47.40
2023-05-20T21:42:23.655Z,47.40
2023-05-20T21:45:17.651Z,47.30
2023-05-20T21:48:11.374Z,47.30
2023-05-20T21:51:04.962Z,47.30
2023-05-20T21:53:59.697Z,47.20
2023-05-20T21:56:52.912Z,47.30
2023-05-20T21:59:46.350Z,47.30
2023-05-20T22:02:39.844Z,47.30
2023-05-20T22:05:34.718Z,47.30
2023-05-20T22:08:30.801Z,47.30
2023-05-20T22:11:26.394Z,47.20
2023-05-20T22:14:19.581Z,47.20
2023-05-20T22:17:12.978Z,47.20
2023-05-20T22:20:10.499Z,47.20
2023-05-20T22:23:04.692Z,47.20
2023-05-20T22:25:58.993Z,47.20
2023-05-20T22:28:53.718Z,47.20
2023-05-20T22:31:47.513Z,47.20
2023-05-20T22:34:40.501Z,47.20
2023-05-20T22:37:33.798Z,47.10
2023-05-20T22:40:27.937Z,47.20
2023-05-20T22:43:23.249Z,47.20
2023-05-20T22:46:18.125Z,47.20
2023-05-20T22:49:12.821Z,47.20
2023-05-20T22:52:07.774Z,47.30
2023-05-20T22:55:01.851Z,47.20
2023-05-20T22:57:55.587Z,47.20
2023-05-20T23:00:48.754Z,47.10
2023-05-20T23:03:46.835Z,47.10
2023-05-20T23:06:40.346Z,47.10
2023-05-20T23:09:33.443Z,47.10
2023-05-20T23:12:26.655Z,47.10
2023-05-20T23:15:20.053Z,47.10
2023-05-20T23:18:13.586Z,47.10
2023-05-20T23:21:08.264Z,47.20
2023-05-20T23:24:01.596Z,47.20
2023-05-20T23:26:54.908Z,47.10
2023-05-20T23:29:48.409Z,47.10
2023-05-20T23:32:41.511Z,47.10
2023-05-20T23:35:34.625Z,47.00
2023-05-20T23:38:30.419Z,47.10
2023-05-20T23:41:24.497Z,47.00
2023-05-20T23:44:17.793Z,47.00
2023-05-20T23:47:13.639Z,47.00
2023-05-20T23:50:07.344Z,47.00
2023-05-20T23:53:00.710Z,47.00
2023-05-20T23:55:55.041Z,47.00
2023-05-20T23:58:48.601Z,46.90
